sensor_id;sensor_type;location;lat;lon;timestamp;P1;durP1;ratioP1;P2;durP2;ratioP2
39948;SDS011;29070;48.102;-1.652;2023-05-01T00:01:45;8.07;;;3.70;;
39948;SDS011;29070;48.102;-1.652;2023-05-01T00:06:46;7.73;;;3.30;;
39948;SDS011;29070;48.102;-1.652;2023-05-01T00:11:46;8.03;;;3.47;;
39948;SDS011;29070;48.102;-1.652;2023-05-01T00:16:46;7.27;;;3.63;;
39948;SDS011;29070;48.102;-1.652;2023-05-01T00:21:47;8.83;;;3.07;;
39948;SDS011;29070;48.102;-1.652;2023-05-01T00:26:47;8.27;;;2.92;;
39948;SDS011;29070;48.102;-1.652;2023-05-01T00:31:48;6.57;;;3.00;;
39948;SDS011;29070;48.102;-1.652;2023-05-01T00:36:48;7.40;;;3.73;;
39948;SDS011;29070;48.102;-1.652;2023-05-01T00:41:48;10.60;;;3.13;;
39948;SDS011;29070;48.102;-1.652;2023-05-01T00:46:49;8.63;;;2.97;;
39948;SDS011;29070;48.102;-1.652;2023-05-01T00:51:50;9.45;;;2.63;;
39948;SDS011;29070;48.102;-1.652;2023-05-01T00:56:52;5.50;;;2.72;;
39948;SDS011;29070;48.102;-1.652;2023-05-01T01:01:53;6.82;;;3.30;;
39948;SDS011;29070;48.102;-1.652;2023-05-01T01:06:57;6.25;;;3.17;;
39948;SDS011;29070;48.102;-1.652;2023-05-01T01:17:18;7.53;;;2.53;;
39948;SDS011;29070;48.102;-1.652;2023-05-01T01:22:27;8.23;;;2.38;;
39948;SDS011;29070;48.102;-1.652;2023-05-01T01:38:43;4.63;;;2.10;;
39948;SDS011;29070;48.102;-1.652;2023-05-01T01:43:47;7.60;;;2.25;;
39948;SDS011;29070;48.102;-1.652;2023-05-01T01:48:57;5.30;;;2.47;;
39948;SDS011;29070;48.102;-1.652;2023-05-01T01:53:58;3.65;;;1.90;;
39948;SDS011;29070;48.102;-1.652;2023-05-01T01:59:01;3.78;;;1.52;;
39948;SDS011;29070;48.102;-1.652;2023-05-01T02:04:04;3.75;;;1.63;;
39948;SDS011;29070;48.102;-1.652;2023-05-01T02:09:07;4.05;;;1.60;;
39948;SDS011;29070;48.102;-1.652;2023-05-01T02:14:09;3.17;;;1.33;;
39948;SDS011;29070;48.102;-1.652;2023-05-01T02:19:11;3.55;;;1.50;;
39948;SDS011;29070;48.102;-1.652;2023-05-01T02:24:13;4.22;;;1.50;;
39948;SDS011;29070;48.102;-1.652;2023-05-01T02:29:14;4.05;;;1.65;;
39948;SDS011;29070;48.102;-1.652;2023-05-01T02:34:15;7.57;;;1.60;;
39948;SDS011;29070;48.102;-1.652;2023-05-01T02:39:15;3.85;;;1.58;;
39948;SDS011;29070;48.102;-1.652;2023-05-01T02:44:16;3.72;;;1.75;;
39948;SDS011;29070;48.102;-1.652;2023-05-01T02:49:18;5.00;;;1.92;;
39948;SDS011;29070;48.102;-1.652;2023-05-01T02:54:20;3.50;;;2.10;;
39948;SDS011;29070;48.102;-1.652;2023-05-01T02:59:21;4.68;;;2.35;;
39948;SDS011;29070;48.102;-1.652;2023-05-01T03:04:21;12.50;;;2.50;;
39948;SDS011;29070;48.102;-1.652;2023-05-01T03:09:22;3.35;;;1.80;;
39948;SDS011;29070;48.102;-1.652;2023-05-01T03:14:22;4.10;;;1.90;;
39948;SDS011;29070;48.102;-1.652;2023-05-01T03:19:22;3.83;;;1.80;;
39948;SDS011;29070;48.102;-1.652;2023-05-01T03:24:23;8.00;;;1.90;;
39948;SDS011;29070;48.102;-1.652;2023-05-01T03:29:23;5.23;;;1.93;;
39948;SDS011;29070;48.102;-1.652;2023-05-01T03:34:24;5.03;;;1.90;;
39948;SDS011;29070;48.102;-1.652;2023-05-01T03:39:24;4.75;;;2.03;;
39948;SDS011;29070;48.102;-1.652;2023-05-01T03:44:24;5.00;;;2.00;;
39948;SDS011;29070;48.102;-1.652;2023-05-01T03:49:25;7.00;;;2.37;;
39948;SDS011;29070;48.102;-1.652;2023-05-01T03:54:25;4.10;;;2.10;;
39948;SDS011;29070;48.102;-1.652;2023-05-01T03:59:25;6.97;;;2.77;;
39948;SDS011;29070;48.102;-1.652;2023-05-01T04:04:26;7.20;;;2.20;;
39948;SDS011;29070;48.102;-1.652;2023-05-01T04:09:28;5.95;;;2.88;;
39948;SDS011;29070;48.102;-1.652;2023-05-01T04:14:31;5.32;;;2.60;;
39948;SDS011;29070;48.102;-1.652;2023-05-01T04:19:31;8.37;;;2.53;;
39948;SDS011;29070;48.102;-1.652;2023-05-01T04:24:33;5.68;;;2.53;;
39948;SDS011;29070;48.102;-1.652;2023-05-01T04:29:35;7.10;;;2.63;;
39948;SDS011;29070;48.102;-1.652;2023-05-01T04:34:35;9.13;;;3.10;;
39948;SDS011;29070;48.102;-1.652;2023-05-01T04:39:36;7.47;;;3.20;;
39948;SDS011;29070;48.102;-1.652;2023-05-01T04:44:36;10.95;;;3.15;;
39948;SDS011;29070;48.102;-1.652;2023-05-01T04:49:37;7.50;;;2.80;;
39948;SDS011;29070;48.102;-1.652;2023-05-01T04:54:37;9.63;;;2.80;;
39948;SDS011;29070;48.102;-1.652;2023-05-01T04:59:37;8.23;;;3.33;;
39948;SDS011;29070;48.102;-1.652;2023-05-01T05:04:38;7.60;;;3.30;;
39948;SDS011;29070;48.102;-1.652;2023-05-01T05:09:38;8.63;;;2.97;;
39948;SDS011;29070;48.102;-1.652;2023-05-01T05:14:39;7.53;;;3.00;;
39948;SDS011;29070;48.102;-1.652;2023-05-01T05:19:40;12.75;;;3.15;;
39948;SDS011;29070;48.102;-1.652;2023-05-01T05:24:40;8.57;;;3.63;;
39948;SDS011;29070;48.102;-1.652;2023-05-01T05:29:41;10.57;;;3.20;;
39948;SDS011;29070;48.102;-1.652;2023-05-01T05:34:41;7.73;;;2.97;;
39948;SDS011;29070;48.102;-1.652;2023-05-01T05:39:41;9.00;;;2.90;;
39948;SDS011;29070;48.102;-1.652;2023-05-01T05:44:41;7.50;;;3.17;;
39948;SDS011;29070;48.102;-1.652;2023-05-01T05:49:42;9.90;;;3.93;;
39948;SDS011;29070;48.102;-1.652;2023-05-01T05:54:42;10.17;;;3.00;;
39948;SDS011;29070;48.102;-1.652;2023-05-01T05:59:42;10.30;;;2.53;;
39948;SDS011;29070;48.102;-1.652;2023-05-01T06:04:43;11.40;;;3.30;;
39948;SDS011;29070;48.102;-1.652;2023-05-01T06:09:44;8.60;;;3.08;;
39948;SDS011;29070;48.102;-1.652;2023-05-01T06:14:44;9.63;;;3.03;;
39948;SDS011;29070;48.102;-1.652;2023-05-01T06:19:45;12.17;;;2.83;;
39948;SDS011;29070;48.102;-1.652;2023-05-01T06:24:45;11.77;;;2.90;;
39948;SDS011;29070;48.102;-1.652;2023-05-01T06:29:46;10.00;;;2.93;;
39948;SDS011;29070;48.102;-1.652;2023-05-01T06:34:46;5.83;;;2.80;;
39948;SDS011;29070;48.102;-1.652;2023-05-01T06:39:46;8.10;;;2.33;;
39948;SDS011;29070;48.102;-1.652;2023-05-01T06:44:47;8.25;;;2.75;;
39948;SDS011;29070;48.102;-1.652;2023-05-01T06:49:47;10.03;;;2.83;;
39948;SDS011;29070;48.102;-1.652;2023-05-01T06:54:47;7.93;;;2.20;;
39948;SDS011;29070;48.102;-1.652;2023-05-01T06:59:48;12.13;;;2.67;;
39948;SDS011;29070;48.102;-1.652;2023-05-01T07:04:48;9.13;;;2.23;;
39948;SDS011;29070;48.102;-1.652;2023-05-01T07:09:48;18.67;;;3.00;;
39948;SDS011;29070;48.102;-1.652;2023-05-01T07:14:50;6.13;;;1.65;;
39948;SDS011;29070;48.102;-1.652;2023-05-01T07:19:50;6.73;;;1.70;;
39948;SDS011;29070;48.102;-1.652;2023-05-01T07:24:51;9.98;;;2.28;;
39948;SDS011;29070;48.102;-1.652;2023-05-01T07:29:52;8.30;;;1.87;;
39948;SDS011;29070;48.102;-1.652;2023-05-01T07:34:54;7.90;;;2.53;;
39948;SDS011;29070;48.102;-1.652;2023-05-01T07:39:55;51.83;;;7.43;;
39948;SDS011;29070;48.102;-1.652;2023-05-01T07:44:57;13.43;;;2.95;;
39948;SDS011;29070;48.102;-1.652;2023-05-01T07:49:57;6.37;;;1.93;;
39948;SDS011;29070;48.102;-1.652;2023-05-01T07:54:57;11.27;;;2.57;;
39948;SDS011;29070;48.102;-1.652;2023-05-01T07:59:58;11.40;;;2.15;;
39948;SDS011;29070;48.102;-1.652;2023-05-01T08:04:58;8.38;;;2.05;;
39948;SDS011;29070;48.102;-1.652;2023-05-01T08:09:59;8.85;;;2.10;;
39948;SDS011;29070;48.102;-1.652;2023-05-01T08:15:00;6.73;;;2.03;;
39948;SDS011;29070;48.102;-1.652;2023-05-01T08:20:00;9.68;;;2.55;;
39948;SDS011;29070;48.102;-1.652;2023-05-01T08:25:01;7.35;;;2.22;;
39948;SDS011;29070;48.102;-1.652;2023-05-01T08:30:01;7.80;;;2.43;;
39948;SDS011;29070;48.102;-1.652;2023-05-01T08:35:02;2.90;;;1.40;;
39948;SDS011;29070;48.102;-1.652;2023-05-01T08:40:02;20.75;;;2.83;;
39948;SDS011;29070;48.102;-1.652;2023-05-01T08:45:07;10.83;;;2.00;;
39948;SDS011;29070;48.102;-1.652;2023-05-01T08:50:09;6.03;;;1.42;;
39948;SDS011;29070;48.102;-1.652;2023-05-01T08:55:11;8.15;;;1.83;;
39948;SDS011;29070;48.102;-1.652;2023-05-01T09:00:16;12.80;;;1.92;;
39948;SDS011;29070;48.102;-1.652;2023-05-01T09:05:18;4.85;;;1.40;;
39948;SDS011;29070;48.102;-1.652;2023-05-01T09:10:20;8.77;;;1.50;;
39948;SDS011;29070;48.102;-1.652;2023-05-01T09:15:20;10.53;;;1.43;;
39948;SDS011;29070;48.102;-1.652;2023-05-01T09:20:21;3.58;;;1.50;;
39948;SDS011;29070;48.102;-1.652;2023-05-01T09:25:22;6.50;;;1.40;;
39948;SDS011;29070;48.102;-1.652;2023-05-01T09:30:29;4.55;;;1.23;;
39948;SDS011;29070;48.102;-1.652;2023-05-01T09:35:30;8.18;;;1.33;;
39948;SDS011;29070;48.102;-1.652;2023-05-01T09:40:32;6.30;;;1.23;;
39948;SDS011;29070;48.102;-1.652;2023-05-01T09:45:32;7.13;;;1.30;;
39948;SDS011;29070;48.102;-1.652;2023-05-01T09:50:33;5.20;;;1.83;;
39948;SDS011;29070;48.102;-1.652;2023-05-01T09:55:34;7.25;;;1.70;;
39948;SDS011;29070;48.102;-1.652;2023-05-01T10:00:53;5.25;;;1.60;;
39948;SDS011;29070;48.102;-1.652;2023-05-01T10:05:53;4.72;;;1.75;;
39948;SDS011;29070;48.102;-1.652;2023-05-01T10:11:00;6.32;;;1.73;;
39948;SDS011;29070;48.102;-1.652;2023-05-01T10:16:03;9.70;;;1.40;;
39948;SDS011;29070;48.102;-1.652;2023-05-01T10:21:06;4.45;;;1.20;;
39948;SDS011;29070;48.102;-1.652;2023-05-01T10:26:08;4.18;;;0.98;;
39948;SDS011;29070;48.102;-1.652;2023-05-01T10:31:13;4.57;;;0.95;;
39948;SDS011;29070;48.102;-1.652;2023-05-01T10:36:19;4.10;;;1.05;;
39948;SDS011;29070;48.102;-1.652;2023-05-01T10:46:58;4.30;;;1.15;;
39948;SDS011;29070;48.102;-1.652;2023-05-01T10:51:59;3.33;;;1.00;;
39948;SDS011;29070;48.102;-1.652;2023-05-01T10:57:01;7.35;;;1.50;;
39948;SDS011;29070;48.102;-1.652;2023-05-01T11:02:02;8.40;;;1.38;;
39948;SDS011;29070;48.102;-1.652;2023-05-01T11:07:20;3.45;;;1.30;;
39948;SDS011;29070;48.102;-1.652;2023-05-01T11:17:44;7.70;;;1.30;;
39948;SDS011;29070;48.102;-1.652;2023-05-01T11:22:45;2.03;;;0.90;;
39948;SDS011;29070;48.102;-1.652;2023-05-01T11:27:46;3.08;;;1.27;;
39948;SDS011;29070;48.102;-1.652;2023-05-01T11:32:48;7.85;;;2.08;;
39948;SDS011;29070;48.102;-1.652;2023-05-01T11:37:49;7.93;;;1.10;;
39948;SDS011;29070;48.102;-1.652;2023-05-01T11:42:50;5.28;;;1.23;;
39948;SDS011;29070;48.102;-1.652;2023-05-01T11:47:59;4.32;;;0.80;;
39948;SDS011;29070;48.102;-1.652;2023-05-01T11:53:02;5.88;;;1.58;;
39948;SDS011;29070;48.102;-1.652;2023-05-01T11:58:07;6.18;;;1.30;;
39948;SDS011;29070;48.102;-1.652;2023-05-01T12:03:11;4.00;;;1.27;;
39948;SDS011;29070;48.102;-1.652;2023-05-01T12:08:13;5.05;;;0.80;;
39948;SDS011;29070;48.102;-1.652;2023-05-01T12:13:17;2.90;;;1.02;;
39948;SDS011;29070;48.102;-1.652;2023-05-01T12:18:18;2.22;;;0.90;;
39948;SDS011;29070;48.102;-1.652;2023-05-01T12:23:29;4.47;;;0.95;;
39948;SDS011;29070;48.102;-1.652;2023-05-01T12:28:33;2.70;;;0.80;;
39948;SDS011;29070;48.102;-1.652;2023-05-01T12:33:34;4.20;;;0.80;;
39948;SDS011;29070;48.102;-1.652;2023-05-01T12:38:34;2.78;;;0.88;;
39948;SDS011;29070;48.102;-1.652;2023-05-01T12:43:35;5.15;;;1.00;;
39948;SDS011;29070;48.102;-1.652;2023-05-01T12:48:37;5.13;;;0.80;;
39948;SDS011;29070;48.102;-1.652;2023-05-01T12:53:41;4.82;;;0.90;;
39948;SDS011;29070;48.102;-1.652;2023-05-01T12:58:42;5.35;;;0.85;;
39948;SDS011;29070;48.102;-1.652;2023-05-01T13:03:43;5.77;;;1.20;;
39948;SDS011;29070;48.102;-1.652;2023-05-01T13:08:43;2.78;;;0.70;;
39948;SDS011;29070;48.102;-1.652;2023-05-01T13:13:44;6.10;;;1.00;;
39948;SDS011;29070;48.102;-1.652;2023-05-01T13:18:47;5.63;;;0.90;;
39948;SDS011;29070;48.102;-1.652;2023-05-01T13:23:59;3.90;;;1.15;;
39948;SDS011;29070;48.102;-1.652;2023-05-01T13:29:00;4.75;;;0.80;;
39948;SDS011;29070;48.102;-1.652;2023-05-01T13:34:03;3.15;;;0.98;;
39948;SDS011;29070;48.102;-1.652;2023-05-01T13:39:03;3.87;;;0.87;;
39948;SDS011;29070;48.102;-1.652;2023-05-01T13:44:03;2.67;;;1.03;;
39948;SDS011;29070;48.102;-1.652;2023-05-01T13:49:05;5.40;;;1.02;;
39948;SDS011;29070;48.102;-1.652;2023-05-01T13:54:09;5.00;;;0.98;;
39948;SDS011;29070;48.102;-1.652;2023-05-01T13:59:10;7.00;;;1.25;;
39948;SDS011;29070;48.102;-1.652;2023-05-01T14:04:13;3.73;;;1.33;;
39948;SDS011;29070;48.102;-1.652;2023-05-01T14:09:16;2.80;;;1.10;;
39948;SDS011;29070;48.102;-1.652;2023-05-01T14:14:17;7.00;;;1.10;;
39948;SDS011;29070;48.102;-1.652;2023-05-01T14:19:18;5.32;;;1.17;;
39948;SDS011;29070;48.102;-1.652;2023-05-01T14:24:19;5.63;;;1.40;;
39948;SDS011;29070;48.102;-1.652;2023-05-01T14:29:24;3.65;;;1.10;;
39948;SDS011;29070;48.102;-1.652;2023-05-01T14:34:26;5.40;;;1.40;;
39948;SDS011;29070;48.102;-1.652;2023-05-01T14:39:28;3.83;;;0.90;;
39948;SDS011;29070;48.102;-1.652;2023-05-01T14:44:31;11.20;;;1.45;;
39948;SDS011;29070;48.102;-1.652;2023-05-01T14:49:31;4.43;;;1.10;;
39948;SDS011;29070;48.102;-1.652;2023-05-01T14:54:32;4.07;;;1.50;;
39948;SDS011;29070;48.102;-1.652;2023-05-01T14:59:43;3.92;;;1.35;;
39948;SDS011;29070;48.102;-1.652;2023-05-01T15:04:43;3.87;;;1.10;;
39948;SDS011;29070;48.102;-1.652;2023-05-01T15:09:44;6.43;;;1.45;;
39948;SDS011;29070;48.102;-1.652;2023-05-01T15:14:45;4.07;;;2.05;;
39948;SDS011;29070;48.102;-1.652;2023-05-01T15:19:45;6.43;;;1.47;;
39948;SDS011;29070;48.102;-1.652;2023-05-01T15:24:46;5.60;;;1.17;;
39948;SDS011;29070;48.102;-1.652;2023-05-01T15:29:46;2.50;;;1.37;;
39948;SDS011;29070;48.102;-1.652;2023-05-01T15:34:47;4.00;;;1.05;;
39948;SDS011;29070;48.102;-1.652;2023-05-01T15:39:54;5.05;;;1.20;;
39948;SDS011;29070;48.102;-1.652;2023-05-01T15:44:54;5.60;;;0.97;;
39948;SDS011;29070;48.102;-1.652;2023-05-01T15:49:54;5.30;;;1.20;;
39948;SDS011;29070;48.102;-1.652;2023-05-01T15:54:54;5.50;;;1.43;;
39948;SDS011;29070;48.102;-1.652;2023-05-01T15:59:55;4.50;;;1.10;;
39948;SDS011;29070;48.102;-1.652;2023-05-01T16:04:55;7.43;;;1.90;;
39948;SDS011;29070;48.102;-1.652;2023-05-01T16:09:56;6.03;;;1.50;;
39948;SDS011;29070;48.102;-1.652;2023-05-01T16:14:56;4.72;;;1.08;;
39948;SDS011;29070;48.102;-1.652;2023-05-01T16:20:00;4.25;;;1.00;;
39948;SDS011;29070;48.102;-1.652;2023-05-01T16:25:01;4.80;;;1.38;;
39948;SDS011;29070;48.102;-1.652;2023-05-01T16:30:03;7.22;;;1.30;;
39948;SDS011;29070;48.102;-1.652;2023-05-01T16:35:05;4.45;;;0.95;;
39948;SDS011;29070;48.102;-1.652;2023-05-01T16:40:06;5.40;;;1.35;;
39948;SDS011;29070;48.102;-1.652;2023-05-01T16:45:08;4.32;;;1.30;;
39948;SDS011;29070;48.102;-1.652;2023-05-01T16:50:11;3.55;;;1.10;;
39948;SDS011;29070;48.102;-1.652;2023-05-01T16:55:12;5.97;;;1.40;;
39948;SDS011;29070;48.102;-1.652;2023-05-01T17:00:13;4.30;;;1.02;;
39948;SDS011;29070;48.102;-1.652;2023-05-01T17:05:14;4.78;;;1.45;;
39948;SDS011;29070;48.102;-1.652;2023-05-01T17:10:15;5.03;;;1.23;;
39948;SDS011;29070;48.102;-1.652;2023-05-01T17:15:15;9.67;;;1.33;;
39948;SDS011;29070;48.102;-1.652;2023-05-01T17:20:17;4.97;;;1.98;;
39948;SDS011;29070;48.102;-1.652;2023-05-01T17:25:17;4.63;;;1.30;;
39948;SDS011;29070;48.102;-1.652;2023-05-01T17:30:18;6.47;;;1.73;;
39948;SDS011;29070;48.102;-1.652;2023-05-01T17:35:18;2.97;;;0.90;;
39948;SDS011;29070;48.102;-1.652;2023-05-01T17:40:18;5.00;;;1.10;;
39948;SDS011;29070;48.102;-1.652;2023-05-01T17:45:19;3.70;;;0.83;;
39948;SDS011;29070;48.102;-1.652;2023-05-01T17:50:22;7.60;;;1.55;;
39948;SDS011;29070;48.102;-1.652;2023-05-01T17:55:22;5.80;;;1.33;;
39948;SDS011;29070;48.102;-1.652;2023-05-01T18:00:23;2.60;;;0.75;;
39948;SDS011;29070;48.102;-1.652;2023-05-01T18:05:24;3.45;;;0.90;;
39948;SDS011;29070;48.102;-1.652;2023-05-01T18:10:25;3.10;;;0.68;;
39948;SDS011;29070;48.102;-1.652;2023-05-01T18:15:29;4.37;;;1.27;;
39948;SDS011;29070;48.102;-1.652;2023-05-01T18:20:30;3.30;;;1.17;;
39948;SDS011;29070;48.102;-1.652;2023-05-01T18:25:30;4.17;;;0.90;;
39948;SDS011;29070;48.102;-1.652;2023-05-01T18:30:31;6.07;;;0.97;;
39948;SDS011;29070;48.102;-1.652;2023-05-01T18:35:32;3.63;;;0.88;;
39948;SDS011;29070;48.102;-1.652;2023-05-01T18:40:32;2.13;;;1.10;;
39948;SDS011;29070;48.102;-1.652;2023-05-01T18:45:33;3.90;;;1.10;;
39948;SDS011;29070;48.102;-1.652;2023-05-01T18:50:33;4.53;;;0.80;;
39948;SDS011;29070;48.102;-1.652;2023-05-01T18:55:33;3.67;;;0.93;;
39948;SDS011;29070;48.102;-1.652;2023-05-01T19:00:34;4.40;;;0.93;;
39948;SDS011;29070;48.102;-1.652;2023-05-01T19:05:34;4.03;;;0.93;;
39948;SDS011;29070;48.102;-1.652;2023-05-01T19:10:35;3.25;;;0.90;;
39948;SDS011;29070;48.102;-1.652;2023-05-01T19:15:36;6.75;;;0.95;;
39948;SDS011;29070;48.102;-1.652;2023-05-01T19:20:36;5.18;;;1.15;;
39948;SDS011;29070;48.102;-1.652;2023-05-01T19:25:37;3.23;;;1.10;;
39948;SDS011;29070;48.102;-1.652;2023-05-01T19:30:37;3.07;;;1.10;;
39948;SDS011;29070;48.102;-1.652;2023-05-01T19:35:37;7.73;;;3.07;;
39948;SDS011;29070;48.102;-1.652;2023-05-01T19:40:38;4.97;;;2.37;;
39948;SDS011;29070;48.102;-1.652;2023-05-01T19:45:41;3.63;;;1.70;;
39948;SDS011;29070;48.102;-1.652;2023-05-01T19:50:42;4.82;;;1.30;;
39948;SDS011;29070;48.102;-1.652;2023-05-01T19:55:49;5.25;;;1.77;;
39948;SDS011;29070;48.102;-1.652;2023-05-01T20:00:49;6.15;;;1.45;;
39948;SDS011;29070;48.102;-1.652;2023-05-01T20:05:50;3.77;;;1.20;;
39948;SDS011;29070;48.102;-1.652;2023-05-01T20:10:50;2.83;;;1.10;;
39948;SDS011;29070;48.102;-1.652;2023-05-01T20:15:51;4.00;;;1.13;;
39948;SDS011;29070;48.102;-1.652;2023-05-01T20:20:51;4.63;;;1.30;;
39948;SDS011;29070;48.102;-1.652;2023-05-01T20:25:51;4.07;;;1.20;;
39948;SDS011;29070;48.102;-1.652;2023-05-01T20:30:52;3.85;;;1.33;;
39948;SDS011;29070;48.102;-1.652;2023-05-01T20:35:52;4.65;;;1.92;;
39948;SDS011;29070;48.102;-1.652;2023-05-01T20:40:53;2.33;;;1.40;;
39948;SDS011;29070;48.102;-1.652;2023-05-01T20:45:53;3.77;;;1.70;;
39948;SDS011;29070;48.102;-1.652;2023-05-01T20:50:53;8.57;;;1.50;;
39948;SDS011;29070;48.102;-1.652;2023-05-01T20:55:54;3.63;;;1.40;;
39948;SDS011;29070;48.102;-1.652;2023-05-01T21:00:54;3.80;;;1.30;;
39948;SDS011;29070;48.102;-1.652;2023-05-01T21:05:58;7.18;;;1.30;;
39948;SDS011;29070;48.102;-1.652;2023-05-01T21:10:59;3.05;;;1.35;;
39948;SDS011;29070;48.102;-1.652;2023-05-01T21:16:00;4.70;;;1.30;;
39948;SDS011;29070;48.102;-1.652;2023-05-01T21:21:01;4.43;;;1.95;;
39948;SDS011;29070;48.102;-1.652;2023-05-01T21:26:02;7.88;;;2.47;;
39948;SDS011;29070;48.102;-1.652;2023-05-01T21:31:02;6.97;;;3.03;;
39948;SDS011;29070;48.102;-1.652;2023-05-01T21:36:02;7.07;;;2.30;;
39948;SDS011;29070;48.102;-1.652;2023-05-01T21:41:03;8.35;;;3.28;;
39948;SDS011;29070;48.102;-1.652;2023-05-01T21:46:04;8.95;;;2.58;;
39948;SDS011;29070;48.102;-1.652;2023-05-01T21:51:05;7.22;;;2.25;;
39948;SDS011;29070;48.102;-1.652;2023-05-01T21:56:06;4.97;;;1.60;;
39948;SDS011;29070;48.102;-1.652;2023-05-01T22:01:06;6.97;;;1.95;;
39948;SDS011;29070;48.102;-1.652;2023-05-01T22:06:08;4.65;;;1.90;;
39948;SDS011;29070;48.102;-1.652;2023-05-01T22:11:08;7.50;;;2.22;;
39948;SDS011;29070;48.102;-1.652;2023-05-01T22:16:09;4.70;;;1.90;;
39948;SDS011;29070;48.102;-1.652;2023-05-01T22:21:11;4.30;;;1.60;;
39948;SDS011;29070;48.102;-1.652;2023-05-01T22:26:11;5.17;;;1.40;;
39948;SDS011;29070;48.102;-1.652;2023-05-01T22:31:12;3.65;;;1.90;;
39948;SDS011;29070;48.102;-1.652;2023-05-01T22:36:12;5.63;;;1.80;;
39948;SDS011;29070;48.102;-1.652;2023-05-01T22:41:13;4.57;;;1.87;;
39948;SDS011;29070;48.102;-1.652;2023-05-01T22:46:14;5.10;;;2.30;;
39948;SDS011;29070;48.102;-1.652;2023-05-01T22:51:14;4.50;;;1.80;;
39948;SDS011;29070;48.102;-1.652;2023-05-01T22:56:15;6.18;;;1.83;;
39948;SDS011;29070;48.102;-1.652;2023-05-01T23:01:15;10.57;;;2.37;;
39948;SDS011;29070;48.102;-1.652;2023-05-01T23:06:17;3.97;;;2.20;;
39948;SDS011;29070;48.102;-1.652;2023-05-01T23:11:17;6.28;;;2.38;;
39948;SDS011;29070;48.102;-1.652;2023-05-01T23:16:20;6.82;;;1.75;;
39948;SDS011;29070;48.102;-1.652;2023-05-01T23:21:20;9.80;;;2.03;;
39948;SDS011;29070;48.102;-1.652;2023-05-01T23:31:25;7.90;;;1.98;;
39948;SDS011;29070;48.102;-1.652;2023-05-01T23:36:26;7.68;;;2.20;;
39948;SDS011;29070;48.102;-1.652;2023-05-01T23:41:27;4.68;;;1.90;;
39948;SDS011;29070;48.102;-1.652;2023-05-01T23:46:28;9.87;;;2.10;;
39948;SDS011;29070;48.102;-1.652;2023-05-01T23:51:29;5.43;;;1.85;;
39948;SDS011;29070;48.102;-1.652;2023-05-01T23:56:30;4.80;;;1.45;;
